createdAt,value
2023-01-26T00:01:21.953Z,9.70
2023-01-26T00:02:53.629Z,8.00
2023-01-26T00:04:25.415Z,8.27
2023-01-26T00:05:57.024Z,8.60
2023-01-26T00:07:29.264Z,9.48
2023-01-26T00:09:01.734Z,10.13
2023-01-26T00:10:35.769Z,9.70
2023-01-26T00:12:07.634Z,9.20
2023-01-26T00:13:39.927Z,10.18
2023-01-26T00:15:11.556Z,9.23
2023-01-26T00:16:43.206Z,9.68
2023-01-26T00:18:15.118Z,10.65
2023-01-26T00:19:46.654Z,10.60
2023-01-26T00:21:21.096Z,10.05
2023-01-26T00:22:52.678Z,9.27
2023-01-26T00:24:24.522Z,10.38
2023-01-26T00:25:56.235Z,8.82
2023-01-26T00:27:27.808Z,9.55
2023-01-26T00:29:00.096Z,9.43
2023-01-26T00:30:31.666Z,10.13
2023-01-26T00:32:03.300Z,10.48
2023-01-26T00:33:34.850Z,9.85
2023-01-26T00:35:07.675Z,11.93
2023-01-26T00:36:41.091Z,11.55
2023-01-26T00:38:12.859Z,10.50
2023-01-26T00:39:45.830Z,9.82
2023-01-26T00:41:36.130Z,12.43
2023-01-26T00:43:07.753Z,12.07
2023-01-26T00:44:41.905Z,11.98
2023-01-26T00:46:13.541Z,10.73
2023-01-26T00:47:45.132Z,11.40
2023-01-26T00:49:16.705Z,11.77
2023-01-26T00:50:50.983Z,11.70
2023-01-26T00:52:22.553Z,10.98
2023-01-26T00:53:55.397Z,11.20
2023-01-26T00:55:33.458Z,12.07
2023-01-26T00:57:05.116Z,10.98
2023-01-26T00:58:36.679Z,11.48
2023-01-26T01:00:10.847Z,12.30
2023-01-26T01:01:42.711Z,10.38
2023-01-26T01:03:14.228Z,12.50
2023-01-26T01:04:45.908Z,12.90
2023-01-26T01:06:17.855Z,10.18
2023-01-26T01:07:49.642Z,11.50
2023-01-26T01:09:21.303Z,11.18
2023-01-26T01:11:09.051Z,10.90
2023-01-26T01:12:41.029Z,10.13
2023-01-26T01:14:13.380Z,10.30
2023-01-26T01:15:44.988Z,10.15
2023-01-26T01:17:16.603Z,11.35
2023-01-26T01:18:48.514Z,10.50
2023-01-26T01:20:20.477Z,10.82
2023-01-26T01:21:51.981Z,11.25
2023-01-26T01:23:23.601Z,11.80
2023-01-26T01:24:55.134Z,11.65
2023-01-26T01:26:27.418Z,10.68
2023-01-26T01:27:59.000Z,12.15
2023-01-26T01:29:30.571Z,10.73
2023-01-26T01:31:06.993Z,11.00
2023-01-26T01:32:41.302Z,11.02
2023-01-26T01:34:12.957Z,10.32
2023-01-26T01:35:45.011Z,10.52
2023-01-26T01:37:17.952Z,10.45
2023-01-26T01:38:50.249Z,10.77
2023-01-26T01:40:21.813Z,9.93
2023-01-26T01:41:53.725Z,10.70
2023-01-26T01:43:27.112Z,10.27
2023-01-26T01:45:20.568Z,10.63
2023-01-26T01:46:57.489Z,9.82
2023-01-26T01:48:52.602Z,10.52
2023-01-26T01:50:25.499Z,10.32
2023-01-26T01:52:05.034Z,10.73
2023-01-26T01:53:40.885Z,10.95
2023-01-26T01:55:14.554Z,10.27
2023-01-26T01:56:52.434Z,10.55
2023-01-26T01:58:24.806Z,9.40
2023-01-26T02:00:08.841Z,8.48
2023-01-26T02:01:48.344Z,9.10
2023-01-26T02:03:21.271Z,9.27
2023-01-26T02:04:57.654Z,11.15
2023-01-26T02:06:43.625Z,10.52
2023-01-26T02:08:18.166Z,10.65
2023-01-26T02:10:08.949Z,9.63
2023-01-26T02:11:48.663Z,10.65
2023-01-26T02:13:22.480Z,11.32
2023-01-26T02:14:54.077Z,10.40
2023-01-26T02:16:26.479Z,13.70
2023-01-26T02:18:02.932Z,12.00
2023-01-26T02:21:15.712Z,10.77
2023-01-26T02:22:56.622Z,10.65
2023-01-26T02:24:37.152Z,11.70
2023-01-26T02:26:12.858Z,11.25
2023-01-26T02:27:44.512Z,10.90
2023-01-26T02:29:16.247Z,11.13
2023-01-26T02:30:49.574Z,11.02
2023-01-26T02:32:21.275Z,11.55
2023-01-26T02:33:52.948Z,11.52
2023-01-26T02:35:25.843Z,11.60
2023-01-26T02:37:01.594Z,9.70
2023-01-26T02:38:42.293Z,12.55
2023-01-26T02:40:26.128Z,11.23
2023-01-26T02:42:16.493Z,11.80
2023-01-26T02:43:48.230Z,11.77
2023-01-26T02:45:21.185Z,10.10
2023-01-26T02:46:53.519Z,10.02
2023-01-26T02:48:44.095Z,11.10
2023-01-26T02:50:16.051Z,10.32
2023-01-26T02:51:48.953Z,11.35
2023-01-26T02:53:20.670Z,10.38
2023-01-26T02:55:11.841Z,12.13
2023-01-26T02:56:43.423Z,10.27
2023-01-26T02:58:15.128Z,12.23
2023-01-26T02:59:46.880Z,11.65
2023-01-26T03:01:19.092Z,13.27
2023-01-26T03:02:56.609Z,11.07
2023-01-26T03:04:29.432Z,10.32
2023-01-26T03:06:01.097Z,10.13
2023-01-26T03:07:32.875Z,11.65
2023-01-26T03:09:04.455Z,10.85
2023-01-26T03:10:36.356Z,12.73
2023-01-26T03:12:07.968Z,12.27
2023-01-26T03:13:39.568Z,11.23
2023-01-26T03:15:30.811Z,11.00
2023-01-26T03:17:02.757Z,10.68
2023-01-26T03:18:54.672Z,10.00
2023-01-26T03:20:45.303Z,10.68
2023-01-26T03:22:35.633Z,10.52
2023-01-26T03:24:30.504Z,12.05
2023-01-26T03:26:22.288Z,10.93
2023-01-26T03:27:53.857Z,10.10
2023-01-26T03:29:26.677Z,11.23
2023-01-26T03:31:01.113Z,11.43
2023-01-26T03:32:35.346Z,9.98
2023-01-26T03:34:09.891Z,10.55
2023-01-26T03:35:41.564Z,11.73
2023-01-26T03:37:13.191Z,12.60
2023-01-26T03:38:50.140Z,10.15
2023-01-26T03:40:40.403Z,11.75
2023-01-26T03:42:30.727Z,9.38
2023-01-26T03:44:20.908Z,9.15
2023-01-26T03:46:11.838Z,9.25
2023-01-26T03:48:02.343Z,10.95
2023-01-26T03:49:53.446Z,11.85
2023-01-26T03:51:43.338Z,10.90
2023-01-26T03:53:41.820Z,11.13
2023-01-26T03:55:34.404Z,9.63
2023-01-26T03:57:06.297Z,9.60
2023-01-26T03:58:38.655Z,10.43
2023-01-26T04:00:11.238Z,10.10
2023-01-26T04:02:05.244Z,11.02
2023-01-26T04:03:56.494Z,10.57
2023-01-26T04:05:46.924Z,11.13
2023-01-26T04:07:37.312Z,11.25
2023-01-26T04:09:08.874Z,11.02
2023-01-26T04:10:40.560Z,12.02
2023-01-26T04:12:14.021Z,11.77
2023-01-26T04:14:16.527Z,11.98
2023-01-26T04:16:06.956Z,11.35
2023-01-26T04:17:57.357Z,11.00
2023-01-26T04:19:47.931Z,9.25
2023-01-26T04:21:29.291Z,10.45
2023-01-26T04:23:01.960Z,11.10
2023-01-26T04:24:34.008Z,11.93
2023-01-26T04:26:05.527Z,11.50
2023-01-26T04:27:37.204Z,10.30
2023-01-26T04:29:14.310Z,10.10
2023-01-26T04:30:47.408Z,10.90
2023-01-26T04:32:19.218Z,10.82
2023-01-26T04:33:52.022Z,10.73
2023-01-26T04:35:23.883Z,10.57
2023-01-26T04:36:55.589Z,10.25
2023-01-26T04:38:30.170Z,10.25
2023-01-26T04:40:02.355Z,11.18
2023-01-26T04:41:35.105Z,10.25
2023-01-26T04:43:10.786Z,9.63
2023-01-26T04:44:42.375Z,11.25
2023-01-26T04:46:14.622Z,10.60
2023-01-26T04:47:46.482Z,9.70
2023-01-26T04:49:20.307Z,10.15
2023-01-26T04:50:56.227Z,10.07
2023-01-26T04:52:29.454Z,11.68
2023-01-26T04:54:01.551Z,10.50
2023-01-26T04:55:33.261Z,10.13
2023-01-26T04:57:04.852Z,10.25
2023-01-26T04:58:38.098Z,10.48
2023-01-26T05:00:12.220Z,9.48
2023-01-26T05:01:44.241Z,9.70
2023-01-26T05:03:15.833Z,12.20
2023-01-26T05:04:47.428Z,11.45
2023-01-26T05:06:20.433Z,9.23
2023-01-26T05:07:53.774Z,10.38
2023-01-26T05:09:26.301Z,9.52
2023-01-26T05:11:14.979Z,9.60
2023-01-26T05:13:09.884Z,9.40
2023-01-26T05:15:00.445Z,9.50
2023-01-26T05:16:50.911Z,8.82
2023-01-26T05:18:51.882Z,8.68
2023-01-26T05:20:49.649Z,9.57
2023-01-26T05:22:29.719Z,10.40
2023-01-26T05:24:36.607Z,8.48
2023-01-26T05:26:14.576Z,8.80
2023-01-26T05:28:05.701Z,9.48
2023-01-26T05:29:37.354Z,8.02
2023-01-26T05:31:09.069Z,8.02
2023-01-26T05:32:40.837Z,8.13
2023-01-26T05:34:12.461Z,8.25
2023-01-26T05:35:45.016Z,8.05
2023-01-26T05:37:16.782Z,7.90
2023-01-26T05:38:49.978Z,7.50
2023-01-26T05:40:26.244Z,8.23
2023-01-26T05:41:58.224Z,9.57
2023-01-26T05:44:01.630Z,6.68
2023-01-26T05:45:44.002Z,8.40
2023-01-26T05:47:17.292Z,7.20
2023-01-26T05:48:53.083Z,6.95
2023-01-26T05:50:24.704Z,8.35
2023-01-26T05:52:34.935Z,7.28
2023-01-26T05:54:06.997Z,7.32
2023-01-26T05:55:38.998Z,8.50
2023-01-26T05:57:12.146Z,7.40
2023-01-26T05:58:48.968Z,8.63
2023-01-26T06:00:20.985Z,8.65
2023-01-26T06:02:01.453Z,8.00
2023-01-26T06:03:33.239Z,8.05
2023-01-26T06:05:05.766Z,8.85
2023-01-26T06:06:37.809Z,7.07
2023-01-26T06:08:47.494Z,9.05
2023-01-26T06:10:37.301Z,8.05
2023-01-26T06:12:21.902Z,8.10
2023-01-26T06:14:06.326Z,6.90
2023-01-26T06:15:38.181Z,7.13
2023-01-26T06:17:10.360Z,8.18
2023-01-26T06:18:42.306Z,8.35
2023-01-26T06:20:14.768Z,8.25
2023-01-26T06:21:49.906Z,8.45
2023-01-26T06:23:21.572Z,8.90
2023-01-26T06:24:53.417Z,7.88
2023-01-26T06:26:25.916Z,8.85
2023-01-26T06:27:59.579Z,7.97
2023-01-26T06:29:34.111Z,8.80
2023-01-26T06:31:08.388Z,8.00
2023-01-26T06:32:40.095Z,7.90
2023-01-26T06:34:12.149Z,7.35
2023-01-26T06:35:46.021Z,7.60
2023-01-26T06:37:17.723Z,6.72
2023-01-26T06:38:50.868Z,7.07
2023-01-26T06:40:22.773Z,8.80
2023-01-26T06:41:54.481Z,6.82
2023-01-26T06:43:26.183Z,7.07
2023-01-26T06:44:58.881Z,7.72
2023-01-26T06:46:30.517Z,6.78
2023-01-26T06:48:02.924Z,7.35
2023-01-26T06:49:34.974Z,8.18
2023-01-26T06:51:15.515Z,7.57
2023-01-26T06:52:51.552Z,7.47
2023-01-26T06:54:41.583Z,8.43
2023-01-26T06:56:23.307Z,7.50
2023-01-26T06:58:15.705Z,8.00
2023-01-26T07:00:08.608Z,7.90
2023-01-26T07:01:49.921Z,7.80
2023-01-26T07:03:21.542Z,7.65
2023-01-26T07:04:53.378Z,8.32
2023-01-26T07:06:24.956Z,8.32
2023-01-26T07:07:56.565Z,7.90
2023-01-26T07:09:28.156Z,7.13
2023-01-26T07:10:59.872Z,6.72
2023-01-26T07:12:42.628Z,7.88
2023-01-26T07:14:14.199Z,7.40
2023-01-26T07:15:45.884Z,7.30
2023-01-26T07:17:17.652Z,7.75
2023-01-26T07:18:49.278Z,8.27
2023-01-26T07:20:20.930Z,9.10
2023-01-26T07:21:52.523Z,8.65
2023-01-26T07:23:24.123Z,7.97
2023-01-26T07:24:55.671Z,8.55
2023-01-26T07:26:27.265Z,8.27
2023-01-26T07:27:59.824Z,7.00
2023-01-26T07:29:31.395Z,7.85
2023-01-26T07:31:05.578Z,7.78
2023-01-26T07:32:37.145Z,6.90
2023-01-26T07:34:09.662Z,7.18
2023-01-26T07:35:41.308Z,8.40
2023-01-26T07:37:12.943Z,9.45
2023-01-26T07:38:44.520Z,9.20
2023-01-26T07:40:16.286Z,7.60
2023-01-26T07:41:49.413Z,9.60
2023-01-26T07:43:43.391Z,12.07
2023-01-26T07:45:17.774Z,14.93
2023-01-26T07:46:49.364Z,18.20
2023-01-26T07:48:23.671Z,19.75
2023-01-26T07:49:55.284Z,14.57
2023-01-26T07:51:26.930Z,14.57
2023-01-26T07:53:00.640Z,8.93
2023-01-26T07:54:32.598Z,8.02
2023-01-26T07:56:14.031Z,9.48
2023-01-26T07:57:48.731Z,7.32
2023-01-26T07:59:23.778Z,10.05
2023-01-26T08:00:56.660Z,9.55
2023-01-26T08:02:28.320Z,7.18
2023-01-26T08:03:59.932Z,8.25
2023-01-26T08:05:32.340Z,7.15
2023-01-26T08:07:04.339Z,7.03
2023-01-26T08:08:36.186Z,7.30
2023-01-26T08:10:08.172Z,7.55
2023-01-26T08:11:40.246Z,7.78
2023-01-26T08:13:11.840Z,7.60
2023-01-26T08:14:46.989Z,7.78
2023-01-26T08:16:19.070Z,7.63
2023-01-26T08:17:51.790Z,7.72
2023-01-26T08:19:25.214Z,7.80
2023-01-26T08:20:56.921Z,8.25
2023-01-26T08:22:28.515Z,7.70
2023-01-26T08:24:02.046Z,7.32
2023-01-26T08:25:34.129Z,8.27
2023-01-26T08:27:05.813Z,7.18
2023-01-26T08:28:37.836Z,7.32
2023-01-26T08:30:10.309Z,6.53
2023-01-26T08:31:42.160Z,6.47
2023-01-26T08:33:13.919Z,7.40
2023-01-26T08:34:45.515Z,7.85
2023-01-26T08:36:21.755Z,6.55
2023-01-26T08:37:53.924Z,7.40
2023-01-26T08:39:25.540Z,7.03
2023-01-26T08:40:57.454Z,8.10
2023-01-26T08:42:29.065Z,7.43
2023-01-26T08:44:00.745Z,7.90
2023-01-26T08:45:32.627Z,6.93
2023-01-26T08:47:04.362Z,7.60
2023-01-26T08:48:36.395Z,8.07
2023-01-26T08:50:09.419Z,7.88
2023-01-26T08:51:41.200Z,7.82
2023-01-26T08:53:13.670Z,8.43
2023-01-26T08:54:45.300Z,7.22
2023-01-26T08:56:17.058Z,6.40
2023-01-26T08:57:52.333Z,6.90
2023-01-26T08:59:23.944Z,7.18
2023-01-26T09:00:55.911Z,6.63
2023-01-26T09:02:27.698Z,7.45
2023-01-26T09:04:00.130Z,6.80
2023-01-26T09:05:34.565Z,7.88
2023-01-26T09:07:06.203Z,6.95
2023-01-26T09:08:38.077Z,6.88
2023-01-26T09:10:10.753Z,6.90
2023-01-26T09:11:42.613Z,7.13
2023-01-26T09:13:14.424Z,7.35
2023-01-26T09:14:46.031Z,8.85
2023-01-26T09:16:20.100Z,8.95
2023-01-26T09:17:52.356Z,9.05
2023-01-26T09:19:24.008Z,8.93
2023-01-26T09:20:56.146Z,9.05
2023-01-26T09:22:27.735Z,8.60
2023-01-26T09:23:59.389Z,9.65
2023-01-26T09:25:31.056Z,8.75
2023-01-26T09:27:02.743Z,8.43
2023-01-26T09:28:34.325Z,9.50
2023-01-26T09:30:07.870Z,8.65
2023-01-26T09:31:40.621Z,6.50
2023-01-26T09:33:12.328Z,7.47
2023-01-26T09:34:45.859Z,5.75
2023-01-26T09:36:18.159Z,6.40
2023-01-26T09:37:49.839Z,5.85
2023-01-26T09:39:21.500Z,5.10
2023-01-26T09:41:11.204Z,6.72
2023-01-26T09:42:51.726Z,6.75
2023-01-26T09:44:25.760Z,8.38
2023-01-26T09:46:12.558Z,6.78
2023-01-26T09:48:12.389Z,7.53
2023-01-26T09:49:49.405Z,6.57
2023-01-26T09:51:32.173Z,5.97
2023-01-26T09:53:30.906Z,6.65
2023-01-26T09:55:05.604Z,6.63
2023-01-26T09:56:37.359Z,7.88
2023-01-26T09:58:39.900Z,7.78
2023-01-26T10:00:26.233Z,7.28
2023-01-26T10:02:20.782Z,6.00
2023-01-26T10:04:26.298Z,6.93
2023-01-26T10:06:01.602Z,5.53
2023-01-26T10:08:11.110Z,5.75
2023-01-26T10:09:47.436Z,7.30
2023-01-26T10:11:27.100Z,5.38
2023-01-26T10:12:59.848Z,5.80
2023-01-26T10:14:52.729Z,5.72
2023-01-26T10:16:25.267Z,5.72
2023-01-26T10:17:59.938Z,6.57
2023-01-26T10:19:37.751Z,4.90
2023-01-26T10:21:12.619Z,5.32
2023-01-26T10:22:46.491Z,6.20
2023-01-26T10:24:22.899Z,6.38
2023-01-26T10:26:01.962Z,6.15
2023-01-26T10:27:33.700Z,5.63
2023-01-26T10:29:05.511Z,5.57
2023-01-26T10:30:40.605Z,6.30
2023-01-26T10:32:18.095Z,5.65
2023-01-26T10:33:52.585Z,5.45
2023-01-26T10:35:25.345Z,5.60
2023-01-26T10:37:20.774Z,7.53
2023-01-26T10:38:52.592Z,7.90
2023-01-26T10:40:25.265Z,6.80
2023-01-26T10:41:59.942Z,6.72
2023-01-26T10:43:41.814Z,5.97
2023-01-26T10:45:30.617Z,5.78
2023-01-26T10:47:03.763Z,6.68
2023-01-26T10:48:35.384Z,8.50
2023-01-26T10:50:24.627Z,9.07
2023-01-26T10:52:24.912Z,8.25
2023-01-26T10:54:19.626Z,9.25
2023-01-26T10:56:07.227Z,12.32
2023-01-26T10:57:41.622Z,7.65
2023-01-26T10:59:25.912Z,7.20
2023-01-26T11:00:57.573Z,7.47
2023-01-26T11:02:31.722Z,10.60
2023-01-26T11:04:12.249Z,10.23
2023-01-26T11:05:47.877Z,10.52
2023-01-26T11:07:32.655Z,6.72
2023-01-26T11:09:20.925Z,7.15
2023-01-26T11:10:52.970Z,10.77
2023-01-26T11:12:26.670Z,8.43
2023-01-26T11:14:18.630Z,10.60
2023-01-26T11:16:02.899Z,6.45
2023-01-26T11:17:44.423Z,10.95
2023-01-26T11:19:28.185Z,10.48
2023-01-26T11:21:20.761Z,5.63
2023-01-26T11:23:22.610Z,6.85
2023-01-26T11:25:14.955Z,5.32
2023-01-26T11:27:11.134Z,8.18
2023-01-26T11:29:04.783Z,8.32
2023-01-26T11:31:10.085Z,7.47
2023-01-26T11:32:57.371Z,5.85
2023-01-26T11:34:29.018Z,5.88
2023-01-26T11:36:28.392Z,6.13
2023-01-26T11:38:23.320Z,6.57
2023-01-26T11:40:17.954Z,5.93
2023-01-26T11:42:07.355Z,6.35
2023-01-26T11:44:00.692Z,4.68
2023-01-26T11:45:38.216Z,4.75
2023-01-26T11:47:19.169Z,5.30
2023-01-26T11:49:08.459Z,5.65
2023-01-26T11:50:50.571Z,6.65
2023-01-26T11:52:43.862Z,5.45
2023-01-26T11:54:58.058Z,4.88
2023-01-26T11:56:51.363Z,5.35
2023-01-26T11:58:43.414Z,6.72
2023-01-26T12:00:29.919Z,5.88
2023-01-26T12:02:26.419Z,5.45
2023-01-26T12:03:59.135Z,5.32
2023-01-26T12:05:41.454Z,7.43
2023-01-26T12:07:20.297Z,5.78
2023-01-26T12:08:53.604Z,5.13
2023-01-26T12:10:43.679Z,5.53
2023-01-26T12:12:24.419Z,4.72
2023-01-26T12:14:20.609Z,5.13
2023-01-26T12:15:58.080Z,6.22
2023-01-26T12:17:59.319Z,5.90
2023-01-26T12:20:04.578Z,5.20
2023-01-26T12:21:38.529Z,6.18
2023-01-26T12:23:28.047Z,4.05
2023-01-26T12:25:22.755Z,5.63
2023-01-26T12:26:54.758Z,5.43
2023-01-26T12:28:35.038Z,7.15
2023-01-26T12:30:19.854Z,5.60
2023-01-26T12:32:14.773Z,5.32
2023-01-26T12:33:51.090Z,5.45
2023-01-26T12:35:53.244Z,5.68
2023-01-26T12:37:47.488Z,6.05
2023-01-26T12:39:45.943Z,6.00
2023-01-26T12:41:42.389Z,6.15
2023-01-26T12:43:36.336Z,5.40
2023-01-26T12:45:18.404Z,5.18
2023-01-26T12:47:08.086Z,6.45
2023-01-26T12:48:49.653Z,5.75
2023-01-26T12:50:53.655Z,5.45
2023-01-26T12:52:36.215Z,5.80
2023-01-26T12:56:01.254Z,4.93
2023-01-26T12:57:42.871Z,5.78
2023-01-26T12:59:47.087Z,6.03
2023-01-26T13:01:24.207Z,5.72
2023-01-26T13:03:02.246Z,6.57
2023-01-26T13:04:34.218Z,5.55
2023-01-26T13:06:15.015Z,6.65
2023-01-26T13:07:46.603Z,5.75
2023-01-26T13:09:18.539Z,6.97
2023-01-26T13:10:50.351Z,5.95
2023-01-26T13:12:55.601Z,5.80
2023-01-26T13:14:37.560Z,7.40
2023-01-26T13:16:15.389Z,6.63
2023-01-26T13:17:51.452Z,5.47
2023-01-26T13:19:41.747Z,6.72
2023-01-26T13:21:17.223Z,5.53
2023-01-26T13:22:48.892Z,7.10
2023-01-26T13:24:20.517Z,5.10
2023-01-26T13:26:15.565Z,5.75
2023-01-26T13:27:57.180Z,5.82
2023-01-26T13:29:32.491Z,6.20
2023-01-26T13:31:06.841Z,6.15
2023-01-26T13:32:41.262Z,7.22
2023-01-26T13:34:16.366Z,5.25
2023-01-26T13:35:50.136Z,6.78
2023-01-26T13:37:30.981Z,5.53
2023-01-26T13:39:11.621Z,7.18
2023-01-26T13:40:50.386Z,7.43
2023-01-26T13:42:31.585Z,6.97
2023-01-26T13:44:17.175Z,5.60
2023-01-26T13:46:24.837Z,6.50
2023-01-26T13:47:58.145Z,5.35
2023-01-26T13:49:40.095Z,6.38
2023-01-26T13:51:15.755Z,5.60
2023-01-26T13:52:47.424Z,6.55
2023-01-26T13:54:19.314Z,8.20
2023-01-26T13:55:58.061Z,5.65
2023-01-26T13:57:31.435Z,5.43
2023-01-26T13:59:08.966Z,6.65
2023-01-26T14:00:40.859Z,7.22
2023-01-26T14:02:22.650Z,7.55
2023-01-26T14:04:05.684Z,10.27
2023-01-26T14:05:37.365Z,10.50
2023-01-26T14:07:19.003Z,13.15
2023-01-26T14:08:55.486Z,10.65
2023-01-26T14:10:27.954Z,11.63
2023-01-26T14:12:03.678Z,12.10
2023-01-26T14:13:38.876Z,12.13
2023-01-26T14:15:23.294Z,8.20
2023-01-26T14:16:57.828Z,6.05
2023-01-26T14:18:29.670Z,5.68
2023-01-26T14:20:03.647Z,7.45
2023-01-26T14:21:58.271Z,8.98
2023-01-26T14:23:34.201Z,6.95
2023-01-26T14:25:10.553Z,7.88
2023-01-26T14:26:43.221Z,6.18
2023-01-26T14:28:16.843Z,6.80
2023-01-26T14:29:48.475Z,7.57
2023-01-26T14:31:23.216Z,7.13
2023-01-26T14:33:16.473Z,5.43
2023-01-26T14:34:53.299Z,6.25
2023-01-26T14:36:27.578Z,6.95
2023-01-26T14:38:14.130Z,7.43
2023-01-26T14:39:48.061Z,10.02
2023-01-26T14:41:24.982Z,9.77
2023-01-26T14:42:57.723Z,7.30
2023-01-26T14:44:30.002Z,9.82
2023-01-26T14:46:08.419Z,7.50
2023-01-26T14:47:42.237Z,8.43
2023-01-26T14:49:43.066Z,9.07
2023-01-26T14:51:24.476Z,7.97
2023-01-26T14:52:56.468Z,8.30
2023-01-26T14:54:32.352Z,9.13
2023-01-26T14:56:04.178Z,6.43
2023-01-26T14:57:35.804Z,9.27
2023-01-26T14:59:09.641Z,7.55
2023-01-26T15:00:41.568Z,7.20
2023-01-26T15:02:49.197Z,8.35
2023-01-26T15:04:31.831Z,7.45
2023-01-26T15:06:13.633Z,6.80
2023-01-26T15:07:46.557Z,7.47
2023-01-26T15:09:20.884Z,6.53
2023-01-26T15:11:19.192Z,6.57
2023-01-26T15:13:03.961Z,7.03
2023-01-26T15:14:38.677Z,7.78
2023-01-26T15:16:19.048Z,8.30
2023-01-26T15:18:04.684Z,10.00
2023-01-26T15:19:41.048Z,7.68
2023-01-26T15:21:15.981Z,7.13
2023-01-26T15:22:52.529Z,7.63
2023-01-26T15:24:24.316Z,7.72
2023-01-26T15:25:56.615Z,7.55
2023-01-26T15:27:33.790Z,9.43
2023-01-26T15:29:17.221Z,6.97
2023-01-26T15:30:51.800Z,6.72
2023-01-26T15:32:32.609Z,5.45
2023-01-26T15:34:05.377Z,7.28
2023-01-26T15:35:37.105Z,7.43
2023-01-26T15:37:29.690Z,6.03
2023-01-26T15:39:14.228Z,7.25
2023-01-26T15:40:45.936Z,7.13
2023-01-26T15:42:24.485Z,6.13
2023-01-26T15:43:57.548Z,7.47
2023-01-26T15:45:33.652Z,7.50
2023-01-26T15:47:08.363Z,5.75
2023-01-26T15:48:40.003Z,6.97
2023-01-26T15:50:27.031Z,8.23
2023-01-26T15:51:59.632Z,6.28
2023-01-26T15:53:31.248Z,7.45
2023-01-26T15:55:18.970Z,7.07
2023-01-26T15:56:50.606Z,6.40
2023-01-26T15:58:23.484Z,5.95
2023-01-26T15:59:55.108Z,7.63
2023-01-26T16:01:31.528Z,5.80
2023-01-26T16:03:14.121Z,8.38
2023-01-26T16:06:22.522Z,6.53
2023-01-26T16:07:54.226Z,6.47
2023-01-26T16:09:25.911Z,6.63
2023-01-26T16:10:57.761Z,6.50
2023-01-26T16:12:32.051Z,6.75
2023-01-26T16:14:04.562Z,8.75
2023-01-26T16:15:42.995Z,6.18
2023-01-26T16:17:17.688Z,7.25
2023-01-26T16:18:49.744Z,7.95
2023-01-26T16:20:21.835Z,7.43
2023-01-26T16:21:53.633Z,5.75
2023-01-26T16:23:32.095Z,7.47
2023-01-26T16:25:18.647Z,7.28
2023-01-26T16:26:50.505Z,6.07
2023-01-26T16:28:22.602Z,7.38
2023-01-26T16:29:54.681Z,6.43
2023-01-26T16:31:30.092Z,6.88
2023-01-26T16:33:02.133Z,8.07
2023-01-26T16:34:34.143Z,8.77
2023-01-26T16:36:06.246Z,7.78
2023-01-26T16:37:38.063Z,6.82
2023-01-26T16:39:09.828Z,7.03
2023-01-26T16:40:44.917Z,6.72
2023-01-26T16:42:19.982Z,7.32
2023-01-26T16:43:54.733Z,6.25
2023-01-26T16:45:26.813Z,7.45
2023-01-26T16:46:58.472Z,7.57
2023-01-26T16:48:34.602Z,6.72
2023-01-26T16:51:39.345Z,6.97
2023-01-26T16:53:17.004Z,6.75
2023-01-26T16:54:50.052Z,6.68
2023-01-26T16:56:23.737Z,7.10
2023-01-26T16:57:55.447Z,7.70
2023-01-26T16:59:27.108Z,8.00
2023-01-26T17:00:58.897Z,7.70
2023-01-26T17:02:35.862Z,7.43
2023-01-26T17:04:10.433Z,8.30
2023-01-26T17:05:42.187Z,7.18
2023-01-26T17:07:13.847Z,6.50
2023-01-26T17:08:46.263Z,7.43
2023-01-26T17:10:18.239Z,8.77
2023-01-26T17:11:50.310Z,8.00
2023-01-26T17:13:22.135Z,8.93
2023-01-26T17:14:54.188Z,6.97
2023-01-26T17:16:34.606Z,7.80
2023-01-26T17:18:06.585Z,7.97
2023-01-26T17:19:38.428Z,8.27
2023-01-26T17:21:10.205Z,8.32
2023-01-26T17:22:41.949Z,9.63
2023-01-26T17:24:13.640Z,7.53
2023-01-26T17:25:47.347Z,9.05
2023-01-26T17:27:18.952Z,8.55
2023-01-26T17:28:54.329Z,8.30
2023-01-26T17:30:26.328Z,8.27
2023-01-26T17:31:58.244Z,7.90
2023-01-26T17:33:30.124Z,8.20
2023-01-26T17:35:01.884Z,8.55
2023-01-26T17:36:33.840Z,8.57
2023-01-26T17:38:05.640Z,8.40
2023-01-26T17:39:37.616Z,7.07
2023-01-26T17:41:09.539Z,8.57
2023-01-26T17:42:41.298Z,8.00
2023-01-26T17:44:14.455Z,9.25
2023-01-26T17:45:46.377Z,10.35
2023-01-26T17:47:18.173Z,8.05
2023-01-26T17:48:50.808Z,8.77
2023-01-26T17:50:22.603Z,7.68
2023-01-26T17:51:54.458Z,9.05
2023-01-26T17:53:27.927Z,9.30
2023-01-26T17:54:59.889Z,9.52
2023-01-26T17:56:31.883Z,10.23
2023-01-26T17:58:05.381Z,10.88
2023-01-26T17:59:37.118Z,8.15
2023-01-26T18:01:10.201Z,7.63
2023-01-26T18:02:41.875Z,8.52
2023-01-26T18:04:14.026Z,8.85
2023-01-26T18:05:56.741Z,10.13
2023-01-26T18:07:29.039Z,7.15
2023-01-26T18:09:00.773Z,7.93
2023-01-26T18:10:32.736Z,8.68
2023-01-26T18:12:04.750Z,8.95
2023-01-26T18:13:36.917Z,10.30
2023-01-26T18:15:08.879Z,12.63
2023-01-26T18:16:40.626Z,10.52
2023-01-26T18:18:13.209Z,8.38
2023-01-26T18:19:45.227Z,8.38
2023-01-26T18:21:19.974Z,12.43
2023-01-26T18:22:51.810Z,8.52
2023-01-26T18:24:23.881Z,8.38
2023-01-26T18:25:55.686Z,8.77
2023-01-26T18:27:27.794Z,9.50
2023-01-26T18:28:59.920Z,8.85
2023-01-26T18:30:31.739Z,9.18
2023-01-26T18:32:03.489Z,8.30
2023-01-26T18:33:35.764Z,9.23
2023-01-26T18:35:07.873Z,10.00
2023-01-26T18:36:39.481Z,9.65
2023-01-26T18:38:11.107Z,10.45
2023-01-26T18:39:42.867Z,8.82
2023-01-26T18:41:17.062Z,9.80
2023-01-26T18:42:49.339Z,8.65
2023-01-26T18:44:22.815Z,10.40
2023-01-26T18:45:54.763Z,12.18
2023-01-26T18:47:28.337Z,11.80
2023-01-26T18:49:01.132Z,16.92
2023-01-26T18:50:33.319Z,12.45
2023-01-26T18:52:05.832Z,10.80
2023-01-26T18:53:41.262Z,10.32
2023-01-26T18:55:14.034Z,11.60
2023-01-26T18:56:47.705Z,10.25
2023-01-26T18:58:20.139Z,11.02
2023-01-26T18:59:52.786Z,8.68
2023-01-26T19:01:26.279Z,8.73
2023-01-26T19:02:58.572Z,9.13
2023-01-26T19:04:30.873Z,9.43
2023-01-26T19:06:05.163Z,13.10
2023-01-26T19:07:37.216Z,10.82
2023-01-26T19:09:09.471Z,11.23
2023-01-26T19:10:41.612Z,9.18
2023-01-26T19:12:13.943Z,9.48
2023-01-26T19:13:47.217Z,9.93
2023-01-26T19:15:19.170Z,11.32
2023-01-26T19:16:51.065Z,10.10
2023-01-26T19:18:23.364Z,8.32
2023-01-26T19:19:55.635Z,7.28
2023-01-26T19:21:28.675Z,8.63
2023-01-26T19:23:01.885Z,10.48
2023-01-26T19:24:33.767Z,9.63
2023-01-26T19:26:18.271Z,9.73
2023-01-26T19:27:51.158Z,10.55
2023-01-26T19:29:23.232Z,9.88
2023-01-26T19:31:03.368Z,11.02
2023-01-26T19:32:35.315Z,10.07
2023-01-26T19:34:08.591Z,11.68
2023-01-26T19:35:40.365Z,8.63
2023-01-26T19:37:12.177Z,10.32
2023-01-26T19:38:44.039Z,8.82
2023-01-26T19:40:16.208Z,8.02
2023-01-26T19:41:48.172Z,8.82
2023-01-26T19:43:20.943Z,6.57
2023-01-26T19:44:52.799Z,9.32
2023-01-26T19:46:24.728Z,7.30
2023-01-26T19:47:56.589Z,7.60
2023-01-26T19:49:28.426Z,8.10
2023-01-26T19:51:08.396Z,7.30
2023-01-26T19:52:40.477Z,7.53
2023-01-26T19:54:13.825Z,6.60
2023-01-26T19:55:45.535Z,7.95
2023-01-26T19:57:18.000Z,7.43
2023-01-26T19:58:52.168Z,6.85
2023-01-26T20:00:23.893Z,6.80
2023-01-26T20:01:56.224Z,7.80
2023-01-26T20:03:28.495Z,8.40
2023-01-26T20:05:00.631Z,6.72
2023-01-26T20:06:34.886Z,7.35
2023-01-26T20:08:07.731Z,6.45
2023-01-26T20:09:40.782Z,7.25
2023-01-26T20:11:13.208Z,8.10
2023-01-26T20:12:45.903Z,8.55
2023-01-26T20:14:18.051Z,6.93
2023-01-26T20:15:50.481Z,7.65
2023-01-26T20:17:22.898Z,6.50
2023-01-26T20:18:56.646Z,7.07
2023-01-26T20:20:28.686Z,7.55
2023-01-26T20:22:02.492Z,9.32
2023-01-26T20:23:39.679Z,7.15
2023-01-26T20:25:18.262Z,7.35
2023-01-26T20:26:51.079Z,7.32
2023-01-26T20:28:23.464Z,7.18
2023-01-26T20:29:55.693Z,7.05
2023-01-26T20:31:28.582Z,7.00
2023-01-26T20:33:02.812Z,7.03
2023-01-26T20:34:35.408Z,8.27
2023-01-26T20:36:16.937Z,7.60
2023-01-26T20:37:48.866Z,8.50
2023-01-26T20:39:25.363Z,7.55
2023-01-26T20:40:58.054Z,7.57
2023-01-26T20:42:30.264Z,8.15
2023-01-26T20:44:05.394Z,7.57
2023-01-26T20:45:41.070Z,8.82
2023-01-26T20:47:12.950Z,8.00
2023-01-26T20:48:45.023Z,7.95
2023-01-26T20:50:17.577Z,8.23
2023-01-26T20:51:49.660Z,8.85
2023-01-26T20:53:22.125Z,9.10
2023-01-26T20:54:54.308Z,9.25
2023-01-26T20:56:27.154Z,8.43
2023-01-26T20:57:59.307Z,9.52
2023-01-26T20:59:31.467Z,7.63
2023-01-26T21:01:08.797Z,7.70
2023-01-26T21:02:41.132Z,8.40
2023-01-26T21:04:13.109Z,8.55
2023-01-26T21:05:45.799Z,8.15
2023-01-26T21:07:18.357Z,7.47
2023-01-26T21:08:53.535Z,7.82
2023-01-26T21:10:25.480Z,8.02
2023-01-26T21:11:57.679Z,8.15
2023-01-26T21:13:29.732Z,7.60
2023-01-26T21:15:01.497Z,8.75
2023-01-26T21:16:35.708Z,8.07
2023-01-26T21:18:08.002Z,9.38
2023-01-26T21:19:40.489Z,9.15
2023-01-26T21:21:15.277Z,10.00
2023-01-26T21:22:47.958Z,9.27
2023-01-26T21:24:20.422Z,8.48